MMMA/MAM METAR and TAF weather

Enter ICAO airport designator
Station Type Date Time Source
MMMA METAR 2021/09/24 00:41 UTC NOAA

MMMA 240041Z 04007KT 8SM SKC 25/21 A2999 RMK FU 1 QUAD


Station Type Date Time Source
MMMA Decoded METAR 2021/09/24 00:41 UTC NOAA

Matamoros International , Mexico (MMMA) 25-46N 097-32W
Sep 23, 2021 - 08:41 PM EDT / 2021.09.24 0041 UTC
Wind: from the NE (040 degrees) at 8 MPH (7 KT):0
Visibility: 8 mile(s):0
Sky conditions: clear
Temperature: 77 F (25 C)
Dew Point: 69 F (21 C)
Relative Humidity: 78%
Pressure (altimeter): 29.99 in. Hg (1015 hPa)
ob: MMMA 240041Z 04007KT 8SM SKC 25/21 A2999 RMK FU 1 QUAD
cycle: 0

Station Type Date Time Source
MMMA TAF 2021/09/24 06:09 UTC NOAA

TAF MMMA 240506Z 2406/2506 04005KT 6SM HZ SKC
TEMPO 2412/2415 BKN015
FM241800 06010KT 6SM HZ SCT020
FM250300 33005KT 6SM HZ SCT015

Example: see airport list